Cytokinetics Inc (NASDAQ:CYTK)

CAPS Rating: 3 out of 5

A biopharmaceutical company, focused on developing small molecule therapeutics for the treatment of cardiovascular diseases and cancer.

Results 1 - 99 of 194 : 1 2 Next »
Top
Pick
Member Name Member
Rating
Start
Date
Call Time
Frame
Start
Price
Stock
Gain
Index
Gain
Score Commentary
cthomas1017 83.47 8/20/2014 Underperform 5Y $4.48 -1.56% +1.08% +2.64 0 Comment
njn81 < 20 7/30/2014 Outperform 5Y $4.14 +6.52% +1.73% +4.79 0 Comment
hayrettin 70.19 7/30/2014 Outperform 5Y $4.18 +5.50% +1.80% +3.70 0 Comment
GyroDynasty 98.88 7/21/2014 Outperform 5Y $4.25 +3.76% +1.60% +2.16 0 Comment
OKwarrior 35.07 6/6/2014 Outperform 5Y $4.88 -9.63% +2.76% -12.39 1 Comment
ArmyRob 74.11 5/7/2014 Underperform 5Y $4.14 +6.52% +6.79% +0.27 0 Comment
foufou1971 68.65 4/28/2014 Outperform 1Y $4.35 +1.38% +7.75% -6.37 0 Comment
AsianMatter 41.71 4/28/2014 Outperform 3W $4.58 -3.71% +7.06% -10.77 0 Comment
portefeuille2 99.67 4/25/2014 Outperform 5Y $4.91 -10.09% +7.33% -17.42 0 Comment
peregrine 98.46 4/25/2014 Outperform 5Y $5.07 -13.02% +7.61% -20.63 0 Comment
SandmanKy 95.11 4/25/2014 Outperform 5Y $5.01 -11.97% +7.36% -19.32 0 Comment
DoubleBagel 86.49 4/25/2014 Outperform 5Y $5.22 -15.52% +6.93% -22.44 0 Comment
portefeuille 99.61 4/16/2014 Outperform 5Y $8.95 -50.73% +7.97% -58.70 0 Comment
TerryFool 23.96 4/15/2014 Outperform 5Y $8.94 -50.67% +9.95% -60.63 1 Comment
TerryHoodSr 59.63 4/15/2014 Outperform 5Y $8.94 -50.67% +9.27% -59.94 1 Comment
msb09 36.92 4/2/2014 Outperform 3M $9.79 -54.95% +6.23% -61.19 0 Comment
Haugurafpeningum 50.19 3/31/2014 Outperform 5Y $9.20 -52.07% +7.29% -59.35 0 Comment
IVolStrategy 34.40 3/26/2014 Outperform 1Y $9.02 -51.11% +7.07% -58.18 0 Comment
BioForcePicks1 93.39 3/25/2014 Outperform 3M $8.94 -50.67% +7.58% -58.25 0 Comment
Dmaral < 20 2/27/2014 Outperform 5Y $10.31 -57.23% +8.08% -65.31 0 Comment
car990le 54.25 1/21/2014 Outperform 5Y $8.91 -50.51% +8.42% -58.92 0 Comment
Plasmidologist 82.35 1/16/2014 Outperform 5Y $9.27 -52.43% +8.85% -61.28 0 Comment
This player feels very strongly about this pick and has marked it a Top Pick. Top Picks do not affect a player’s score. s2dbaker 89.69 1/10/2014 Outperform 5Y $9.22 -52.17% +9.05% -61.22 1 Comment
flypower 98.83 1/7/2014 Outperform 5Y $7.30 -39.59% +9.37% -48.96 0 Comment
HoosierDoozer < 20 12/23/2013 Outperform 5Y $6.60 -33.18% +9.70% -42.88 0 Comment
grahamfordummies 74.06 8/8/2013 12/4/2013 Outperform 3Y $10.21 -56.81% +17.81% -74.62 1 Comment
cavemantrader 63.07 11/7/2013 Outperform 5Y $6.33 -30.33% +14.44% -44.77 0 Comment
willyRD 26.83 10/9/2013 Outperform 1Y $6.65 -33.68% +20.78% -54.46 0 Comment
mandynshane < 20 10/8/2013 Outperform NS $6.69 -34.08% +20.08% -54.16 0 Comment
ImFive 30.14 10/7/2013 Outperform 5Y $7.03 -37.27% +19.61% -56.88 0 Comment
ralonsot < 20 10/2/2013 Outperform 5Y $7.38 -40.24% +18.62% -58.86 0 Comment
withoutDoubt 28.67 9/5/2013 Outperform 5Y $8.32 -47.03% +20.55% -67.57 0 Comment
fatmoneyrz 98.03 9/3/2013 Outperform 5Y $7.79 -43.39% +21.15% -64.54 0 Comment
KidJones 97.68 9/3/2013 Outperform 5Y $8.62 -48.84% +21.19% -70.03 0 Comment
maximstrelzow 99.06 8/30/2013 Outperform NS $10.81 -59.20% +21.73% -80.93 0 Comment
Greeniesnack 59.75 8/23/2013 Outperform 5Y $11.11 -60.31% +20.23% -80.54 0 Comment
FoolPep 36.83 8/22/2013 Outperform 3M $11.60 -61.98% +21.44% -83.42 0 Comment
SCOTTRHUETTLCPA 62.37 8/19/2013 Underperform 3W $10.18 -56.68% +21.23% +77.91 0 Comment
rknapton < 20 8/7/2013 Underperform 5Y $10.55 -58.20% +18.36% +76.56 1 Comment
ababrmon 85.50 7/31/2013 Outperform 3M $12.47 -64.64% +18.72% -83.35 0 Comment
efarev 98.98 2/4/2011 7/26/2013 Outperform 5Y $11.16 -60.48% +53.03% -113.51 0 Comment
ronmcpeek < 20 7/19/2013 Outperform 5Y $13.43 -67.16% +18.83% -85.99 0 Comment
TMFEZMagic 58.34 7/15/2013 Underperform 5Y $13.76 -67.95% +19.25% +87.21 0 Comment
batman35 21.69 7/12/2013 Outperform 1Y $13.60 -67.57% +19.55% -87.13 0 Comment
kaletbaldrich27 < 20 7/10/2013 Outperform 1Y $13.30 -66.84% +21.51% -88.35 1 Comment
Jsams82 < 20 7/1/2013 Outperform 1Y $11.58 -61.92% +24.18% -86.10 0 Comment
OriginalBarnacle 58.10 7/1/2013 Underperform 1Y $11.58 -61.92% +24.18% +86.10 0 Comment
JJ68 < 20 6/26/2013 Outperform 5Y $12.10 -63.57% +25.47% -89.04 0 Comment
ytryan 70.88 6/19/2013 Outperform 5Y $11.28 -60.91% +21.61% -82.51 0 Comment
Scraming < 20 6/19/2013 Outperform 3M $11.58 -61.92% +20.98% -82.89 0 Comment
saab93boi < 20 6/18/2013 Underperform 5Y $11.10 -60.27% +20.71% +80.98 0 Comment
shonny2 < 20 5/22/2013 Outperform 5Y $6.90 -36.08% +19.44% -55.52 0 Comment
OttoBismarck 99.90 5/10/2013 Underperform 5Y $6.42 -31.31% +22.86% +54.17 0 Comment
ava5147 < 20 2/19/2013 Outperform 1Y $6.24 -29.33% +31.42% -60.75 0 Comment
mcdbenbe 63.20 2/19/2013 Outperform 5Y $6.24 -29.33% +31.42% -60.75 0 Comment
montys3 57.85 1/22/2013 Outperform 5Y $5.99 -26.33% +34.54% -60.87 0 Comment
Spyrig < 20 12/17/2012 Outperform 5Y $4.02 +9.70% +40.56% -30.85 0 Comment
mdrnsamurai < 20 12/12/2012 Outperform 5Y $4.29 +2.80% +39.06% -36.27 0 Comment
jack0071 75.33 11/27/2012 Outperform 3Y $4.20 +5.00% +42.11% -37.11 0 Comment
danculbertson 58.52 10/15/2012 Outperform 3M $4.41 0% +39.38% -39.38 0 Comment
millerto 42.42 8/31/2012 Outperform 1Y $4.58 -3.66% +42.08% -45.74 0 Comment
IdahoInvestor 28.87 8/8/2012 Underperform 5Y $4.00 +10.23% +42.52% +32.29 0 Comment
iadops40 41.70 7/13/2012 Outperform 1Y $4.02 +9.70% +49.60% -39.90 0 Comment
THERULERGOD < 20 7/11/2012 Outperform 5Y $4.26 +3.52% +49.21% -45.69 0 Comment
greentah 63.54 7/9/2012 Outperform 5Y $4.32 +2.08% +47.92% -45.83 0 Comment
HongHue < 20 7/6/2012 Outperform 1Y $3.90 +13.08% +47.82% -34.74 0 Comment
Harlequinvestor 35.23 6/18/2012 Outperform 1Y $5.16 -14.53% +49.91% -64.45 0 Comment
ConradMike55 < 20 5/10/2012 Outperform 3W $5.58 -20.97% +46.51% -67.48 0 Comment
Arsenal1860 < 20 5/10/2012 Outperform 5Y $5.58 -20.97% +46.51% -67.48 0 Comment
MythQuinn 89.90 5/8/2012 Outperform 3Y $5.52 -20.11% +46.68% -66.79 0 Comment
stainsolution 51.30 5/8/2012 Outperform 5Y $5.70 -22.63% +46.94% -69.57 0 Comment
foolbull12 < 20 5/8/2012 Outperform 5Y $5.52 -20.11% +47.10% -67.21 0 Comment
RBuskey106 53.35 3/15/2012 Outperform 5Y $7.14 -38.24% +42.46% -80.69 1 Comment
TechSci 21.02 3/6/2012 Outperform 5Y $6.54 -32.57% +48.39% -80.96 0 Comment
ReaperKK < 20 2/13/2012 Outperform 1Y $7.08 -37.71% +48.39% -86.10 1 Comment
mhy729 32.17 2/17/2011 2/13/2012 Outperform 1Y $9.18 -51.95% +49.78% -101.72 0 Comment
drt2202 < 20 12/29/2011 Outperform 5Y $5.94 -25.76% +59.89% -85.65 0 Comment
CaptainVegetable < 20 8/5/2011 Outperform 5Y $7.14 -38.24% +64.69% -102.93 0 Comment
pobeda79 31.79 6/20/2011 Outperform 5Y $6.90 -36.09% +58.15% -94.24 0 Comment
amsteinberg86 < 20 5/31/2011 Outperform 3Y $8.64 -48.96% +48.59% -97.54 0 Comment
codyjr002 98.75 5/27/2011 Outperform 5Y $8.64 -48.96% +50.00% -98.96 0 Comment
Thleter 62.60 5/24/2011 Outperform 1Y $8.10 -45.56% +51.74% -97.29 1 Comment
ag77840 23.12 5/18/2011 Outperform 5Y $8.61 -48.78% +49.24% -98.02 0 Comment
Doggity 72.80 5/17/2011 Outperform 5Y $8.64 -48.96% +50.92% -99.87 0 Comment
Euro247 33.56 5/13/2011 Outperform 5Y $8.79 -49.83% +49.59% -99.41 0 Comment
inouye 55.64 5/3/2011 Outperform 1Y $8.52 -48.24% +47.72% -95.96 0 Comment
NVTreasureHunter 28.91 4/27/2011 Outperform NS $9.00 -51.00% +48.28% -99.28 0 Comment
Squeege1981 72.15 4/18/2011 Outperform 5Y $8.64 -48.96% +53.34% -102.30 0 Comment
reachmygoals1 < 20 4/11/2011 Outperform 3M $8.94 -50.67% +50.56% -101.24 0 Comment
limeonaire 98.98 4/4/2011 Outperform 5Y $9.00 -51.00% +50.08% -101.08 0 Comment
ajhers2 < 20 3/25/2011 Outperform 5Y $8.46 -47.87% +51.89% -99.76 0 Comment
lombardy 43.61 3/22/2011 Outperform 5Y $7.62 -42.13% +54.37% -96.50 0 Comment
binyalazar < 20 3/10/2011 Outperform 5Y $8.99 -50.97% +53.35% -104.32 0 Comment
WorldOnFire 28.23 2/23/2011 Outperform 3W $8.70 -49.31% +51.99% -101.30 0 Comment
HackInvestor < 20 2/22/2011 Outperform 5Y $9.12 -51.64% +50.43% -102.07 0 Comment
cheaply 20.42 2/10/2011 Outperform 1Y $11.16 -60.48% +52.17% -112.65 1 Comment
phineas333 30.61 2/10/2011 Outperform 5Y $11.04 -60.05% +52.17% -112.22 0 Comment
Cjbrat1 29.21 1/10/2011 Outperform 5Y $12.36 -64.32% +58.20% -122.52 0 Comment
atlasbooks 87.77 1/4/2011 Outperform 3M $12.96 -65.97% +57.27% -123.24 0 Comment
Results 1 - 99 of 194 : 1 2 Next »

Featured Broker Partners


Advertisement